KSNS/SNS METAR and TAF weather

Enter ICAO airport designator
Station Type Date Time Source
KSNS METAR 2021/02/27 02:53 UTC NOAA

KSNS 270253Z AUTO 24012KT 10SM CLR 11/06 A3009 RMK AO2 SLP200 T01110061 51001


Station Type Date Time Source
KSNS Decoded METAR 2021/02/27 02:53 UTC NOAA

SALINAS MUNICIPAL AIRPORT, CA, United States (KSNS) 36-40N 121-36W 30M
Feb 26, 2021 - 09:53 PM EST / 2021.02.27 0253 UTC
Wind: from the WSW (240 degrees) at 14 MPH (12 KT):0
Visibility: 10 mile(s):0
Sky conditions: clear
Temperature: 52.0 F (11.1 C)
Dew Point: 43.0 F (6.1 C)
Relative Humidity: 71%
Pressure (altimeter): 30.09 in. Hg (1018 hPa)
Pressure tendency: 0.00 inches (0.1 hPa) higher than three hours ago
ob: KSNS 270253Z AUTO 24012KT 10SM CLR 11/06 A3009 RMK AO2 SLP200 T01110061 51001
cycle: 3

Station Type Date Time Source
KSNS TAF 2021/02/26 18:39 UTC NOAA

TAF KSNS 261737Z 2618/2718 27010G16KT P6SM FEW020
FM262100 27014G20KT P6SM SKC
FM270300 25009KT P6SM SKC
FM270700 VRB04KT P6SM SKC
FM271200 VRB03KT 6SM BR SCT050

Example: see airport list